createdAt,value
2023-02-14T00:01:28.657Z,6.20
2023-02-14T00:04:00.635Z,6.15
2023-02-14T00:06:32.736Z,6.15
2023-02-14T00:09:03.590Z,6.15
2023-02-14T00:11:31.594Z,6.11
2023-02-14T00:14:18.238Z,6.06
2023-02-14T00:16:46.101Z,5.99
2023-02-14T00:19:15.933Z,5.93
2023-02-14T00:21:44.276Z,5.89
2023-02-14T00:24:14.943Z,5.89
2023-02-14T00:26:43.607Z,5.86
2023-02-14T00:29:14.272Z,5.82
2023-02-14T00:31:44.515Z,5.79
2023-02-14T00:34:12.701Z,5.75
2023-02-14T00:36:40.737Z,5.71
2023-02-14T00:39:11.333Z,5.67
2023-02-14T00:41:40.502Z,5.63
2023-02-14T00:44:09.959Z,5.63
2023-02-14T00:46:37.829Z,5.65
2023-02-14T00:49:06.089Z,5.65
2023-02-14T00:51:33.961Z,5.66
2023-02-14T00:54:03.754Z,5.65
2023-02-14T00:56:33.780Z,5.67
2023-02-14T00:59:01.692Z,5.68
2023-02-14T01:01:29.790Z,5.68
2023-02-14T01:03:58.956Z,5.67
2023-02-14T01:06:27.090Z,5.67
2023-02-14T01:08:54.962Z,5.63
2023-02-14T01:11:24.454Z,5.57
2023-02-14T01:13:56.436Z,5.54
2023-02-14T01:16:26.529Z,5.53
2023-02-14T01:18:56.390Z,5.50
2023-02-14T01:21:27.515Z,5.48
2023-02-14T01:23:59.979Z,5.44
2023-02-14T01:26:28.875Z,5.40
2023-02-14T01:28:57.500Z,5.39
2023-02-14T01:31:31.861Z,5.38
2023-02-14T01:34:00.507Z,5.37
2023-02-14T01:36:39.458Z,5.35
2023-02-14T01:39:12.348Z,5.34
2023-02-14T01:41:42.304Z,5.34
2023-02-14T01:44:16.904Z,5.35
2023-02-14T01:46:45.922Z,5.30
2023-02-14T01:49:21.323Z,5.25
2023-02-14T01:51:57.898Z,5.24
2023-02-14T01:54:29.372Z,5.24
2023-02-14T01:57:02.743Z,5.23
2023-02-14T01:59:36.071Z,5.24
2023-02-14T02:02:05.517Z,5.23
2023-02-14T02:04:38.308Z,5.23
2023-02-14T02:07:10.149Z,5.24
2023-02-14T02:09:51.431Z,5.25
2023-02-14T02:12:19.809Z,5.26
2023-02-14T02:14:51.087Z,5.27
2023-02-14T02:17:31.162Z,5.26
2023-02-14T02:20:33.580Z,5.26
2023-02-14T02:23:14.208Z,5.23
2023-02-14T02:26:02.408Z,5.20
2023-02-14T02:29:15.575Z,5.21
2023-02-14T02:32:08.106Z,5.19
2023-02-14T02:34:54.775Z,5.16
2023-02-14T02:37:42.985Z,5.15
2023-02-14T02:40:29.253Z,5.12
2023-02-14T02:43:17.403Z,5.11
2023-02-14T02:46:12.445Z,5.10
2023-02-14T02:48:53.337Z,5.07
2023-02-14T02:51:48.865Z,5.03
2023-02-14T02:54:28.176Z,5.00
2023-02-14T02:56:59.693Z,4.98
2023-02-14T02:59:33.217Z,4.97
2023-02-14T03:02:33.052Z,4.97
2023-02-14T03:05:05.564Z,4.92
2023-02-14T03:07:40.414Z,4.88
2023-02-14T03:10:25.519Z,4.87
2023-02-14T03:12:57.956Z,4.86
2023-02-14T03:15:47.903Z,4.85
2023-02-14T03:18:27.872Z,4.84
2023-02-14T03:21:08.924Z,4.82
2023-02-14T03:23:49.213Z,4.78
2023-02-14T03:26:37.934Z,4.78
2023-02-14T03:29:29.519Z,4.76
2023-02-14T03:32:06.879Z,4.76
2023-02-14T03:34:49.970Z,4.76
2023-02-14T03:37:33.572Z,4.75
2023-02-14T03:40:26.853Z,4.74
2023-02-14T03:43:00.721Z,4.74
2023-02-14T03:46:07.155Z,4.77
2023-02-14T03:48:36.962Z,4.76
2023-02-14T03:51:07.853Z,4.74
2023-02-14T03:53:38.643Z,4.75
2023-02-14T03:56:44.072Z,4.76
2023-02-14T03:59:19.015Z,4.78
2023-02-14T04:02:05.256Z,4.77
2023-02-14T04:04:36.996Z,4.78
2023-02-14T04:07:15.251Z,4.76
2023-02-14T04:09:43.239Z,4.74
2023-02-14T04:12:12.263Z,4.75
2023-02-14T04:14:40.183Z,4.78
2023-02-14T04:17:26.941Z,4.79
2023-02-14T04:19:54.801Z,4.78
2023-02-14T04:22:22.643Z,4.77
2023-02-14T04:24:50.437Z,4.78
2023-02-14T04:27:18.268Z,4.80
2023-02-14T04:29:50.355Z,4.77
2023-02-14T04:32:21.896Z,4.73
2023-02-14T04:34:49.906Z,4.71
2023-02-14T04:37:19.539Z,4.71
2023-02-14T04:39:47.403Z,4.73
2023-02-14T04:42:16.088Z,4.73
2023-02-14T04:44:43.925Z,4.70
2023-02-14T04:47:11.789Z,4.70
2023-02-14T04:49:39.645Z,4.70
2023-02-14T04:52:07.658Z,4.70
2023-02-14T04:54:35.578Z,4.70
2023-02-14T04:57:03.436Z,4.68
2023-02-14T04:59:31.351Z,4.69
2023-02-14T05:01:59.323Z,4.69
2023-02-14T05:04:27.229Z,4.66
2023-02-14T05:06:55.091Z,4.63
2023-02-14T05:09:22.963Z,4.62
2023-02-14T05:11:51.820Z,4.61
2023-02-14T05:14:19.649Z,4.62
2023-02-14T05:16:47.524Z,4.60
2023-02-14T05:19:15.446Z,4.62
2023-02-14T05:21:43.256Z,4.67
2023-02-14T05:24:11.127Z,4.69
2023-02-14T05:26:39.394Z,4.67
2023-02-14T05:29:07.533Z,4.67
2023-02-14T05:31:35.589Z,4.67
2023-02-14T05:34:03.507Z,4.65
2023-02-14T05:36:31.368Z,4.61
2023-02-14T05:38:59.205Z,4.59
2023-02-14T05:41:27.131Z,4.57
2023-02-14T05:43:55.049Z,4.56
2023-02-14T05:46:22.880Z,4.58
2023-02-14T05:48:51.382Z,4.59
2023-02-14T05:51:19.296Z,4.58
2023-02-14T05:53:47.197Z,4.60
2023-02-14T05:56:15.085Z,4.59
2023-02-14T05:58:43.740Z,4.58
2023-02-14T06:01:11.669Z,4.57
2023-02-14T06:03:39.632Z,4.59
2023-02-14T06:06:07.671Z,4.62
2023-02-14T06:08:35.520Z,4.62
2023-02-14T06:11:03.395Z,4.64
2023-02-14T06:13:31.272Z,4.66
2023-02-14T06:15:59.090Z,4.62
2023-02-14T06:18:29.660Z,4.61
2023-02-14T06:20:58.042Z,4.60
2023-02-14T06:23:26.121Z,4.57
2023-02-14T06:25:53.995Z,4.58
2023-02-14T06:28:22.857Z,4.57
2023-02-14T06:30:50.763Z,4.56
2023-02-14T06:33:18.712Z,4.56
2023-02-14T06:35:46.560Z,4.57
2023-02-14T06:38:14.393Z,4.57
2023-02-14T06:40:42.264Z,4.59
2023-02-14T06:43:10.184Z,4.59
2023-02-14T06:45:38.062Z,4.59
2023-02-14T06:48:06.156Z,4.58
2023-02-14T06:50:33.988Z,4.58
2023-02-14T06:53:01.817Z,4.58
2023-02-14T06:55:29.683Z,4.59
2023-02-14T06:57:57.545Z,4.60
2023-02-14T07:00:25.450Z,4.63
2023-02-14T07:02:53.297Z,4.66
2023-02-14T07:05:22.007Z,4.69
2023-02-14T07:07:49.859Z,4.73
2023-02-14T07:10:17.886Z,4.78
2023-02-14T07:12:45.826Z,4.83
2023-02-14T07:15:13.895Z,4.84
2023-02-14T07:17:41.883Z,4.84
2023-02-14T07:20:11.048Z,4.85
2023-02-14T07:22:39.632Z,4.85
2023-02-14T07:25:08.169Z,4.83
2023-02-14T07:27:36.255Z,4.83
2023-02-14T07:30:05.422Z,4.85
2023-02-14T07:32:33.478Z,4.87
2023-02-14T07:35:01.337Z,4.89
2023-02-14T07:37:29.142Z,4.88
2023-02-14T07:39:56.964Z,4.90
2023-02-14T07:42:24.855Z,4.92
2023-02-14T07:44:52.813Z,4.93
2023-02-14T07:47:21.006Z,4.91
2023-02-14T07:49:48.838Z,4.91
2023-02-14T07:52:17.083Z,4.92
2023-02-14T07:54:44.925Z,4.92
2023-02-14T07:57:12.713Z,4.91
2023-02-14T07:59:40.558Z,4.89
2023-02-14T08:02:10.837Z,4.89
2023-02-14T08:04:38.824Z,5.02
2023-02-14T08:07:06.762Z,5.10
2023-02-14T08:09:34.655Z,5.12
2023-02-14T08:12:21.102Z,5.17
2023-02-14T08:14:48.878Z,5.20
2023-02-14T08:17:16.768Z,5.18
2023-02-14T08:19:44.549Z,5.14
2023-02-14T08:22:12.450Z,5.15
2023-02-14T08:24:40.296Z,5.15
2023-02-14T08:27:08.117Z,5.13
2023-02-14T08:29:35.987Z,5.11
2023-02-14T08:32:03.919Z,5.09
2023-02-14T08:34:31.789Z,5.09
2023-02-14T08:36:59.674Z,5.12
2023-02-14T08:39:27.499Z,5.17
2023-02-14T08:41:55.333Z,5.18
2023-02-14T08:44:23.926Z,5.16
2023-02-14T08:46:52.597Z,5.16
2023-02-14T08:49:21.754Z,5.17
2023-02-14T08:51:50.060Z,5.20
2023-02-14T08:54:18.254Z,5.25
2023-02-14T08:56:47.135Z,5.29
2023-02-14T08:59:15.554Z,5.31
2023-02-14T09:01:44.351Z,5.36
2023-02-14T09:04:13.227Z,5.43
2023-02-14T09:06:42.314Z,5.44
2023-02-14T09:09:10.193Z,5.43
2023-02-14T09:11:38.534Z,5.44
2023-02-14T09:14:06.692Z,5.43
2023-02-14T09:16:34.687Z,5.43
2023-02-14T09:19:02.620Z,5.42
2023-02-14T09:21:30.646Z,5.44
2023-02-14T09:23:58.653Z,5.44
2023-02-14T09:26:26.645Z,5.45
2023-02-14T09:28:55.171Z,5.41
2023-02-14T09:31:25.301Z,5.41
2023-02-14T09:34:12.166Z,5.43
2023-02-14T09:36:39.973Z,5.45
2023-02-14T09:39:07.834Z,5.53
2023-02-14T09:42:12.898Z,5.63
2023-02-14T09:44:47.433Z,5.71
2023-02-14T09:47:40.596Z,5.74
2023-02-14T09:50:34.630Z,5.74
2023-02-14T09:53:15.426Z,5.75
2023-02-14T09:55:49.983Z,5.80
2023-02-14T09:58:49.646Z,5.82
2023-02-14T10:01:21.955Z,5.81
2023-02-14T10:04:06.506Z,5.82
2023-02-14T10:06:46.713Z,5.82
2023-02-14T10:09:32.905Z,5.84
2023-02-14T10:12:02.120Z,5.85
2023-02-14T10:14:36.613Z,5.87
2023-02-14T10:17:13.915Z,5.92
2023-02-14T10:19:48.975Z,5.91
2023-02-14T10:22:20.774Z,5.89
2023-02-14T10:25:01.208Z,5.98
2023-02-14T10:27:44.683Z,6.01
2023-02-14T10:30:18.716Z,6.07
2023-02-14T10:32:56.644Z,6.07
2023-02-14T10:35:43.111Z,6.03
2023-02-14T10:38:26.524Z,6.05
2023-02-14T10:41:24.969Z,6.14
2023-02-14T10:44:22.653Z,6.20
2023-02-14T10:47:04.244Z,6.31
2023-02-14T10:49:52.196Z,6.36
2023-02-14T10:52:29.617Z,6.44
2023-02-14T10:55:13.881Z,6.56
2023-02-14T10:57:49.639Z,6.65
2023-02-14T11:00:26.272Z,6.69
2023-02-14T11:02:58.169Z,6.70
2023-02-14T11:05:34.879Z,6.73
2023-02-14T11:08:14.082Z,6.80
2023-02-14T11:10:42.106Z,6.91
2023-02-14T11:13:37.325Z,6.99
2023-02-14T11:16:11.340Z,6.98
2023-02-14T11:18:40.969Z,6.99
2023-02-14T11:21:14.564Z,6.97
2023-02-14T11:23:45.710Z,6.94
2023-02-14T11:26:28.549Z,6.97
2023-02-14T11:29:02.500Z,6.99
2023-02-14T11:31:35.513Z,6.97
2023-02-14T11:34:06.958Z,6.88
2023-02-14T11:36:42.068Z,6.78
2023-02-14T11:39:31.847Z,6.75
2023-02-14T11:42:04.183Z,6.74
2023-02-14T11:44:36.994Z,6.73
2023-02-14T11:47:27.318Z,6.71
2023-02-14T11:50:21.654Z,6.67
2023-02-14T11:52:57.227Z,6.60
2023-02-14T11:55:34.097Z,6.51
2023-02-14T11:58:05.668Z,6.48
2023-02-14T12:00:33.943Z,6.48
2023-02-14T12:03:05.635Z,6.49
2023-02-14T12:05:49.585Z,6.46
2023-02-14T12:08:25.070Z,6.43
2023-02-14T12:11:06.401Z,6.44
2023-02-14T12:13:34.702Z,6.41
2023-02-14T12:16:03.841Z,6.39
2023-02-14T12:18:50.437Z,6.39
2023-02-14T12:21:30.438Z,6.45
2023-02-14T12:24:41.453Z,6.43
2023-02-14T12:27:27.873Z,6.44
2023-02-14T12:30:11.919Z,6.40
2023-02-14T12:32:45.599Z,6.36
2023-02-14T12:35:39.741Z,6.30
2023-02-14T12:38:32.944Z,6.25
2023-02-14T12:41:25.500Z,6.27
2023-02-14T12:43:56.224Z,6.27
2023-02-14T12:49:12.233Z,6.21
2023-02-14T12:52:04.110Z,6.15
2023-02-14T12:54:56.362Z,6.13
2023-02-14T12:57:42.370Z,6.16
2023-02-14T13:00:17.531Z,6.22
2023-02-14T13:03:20.772Z,6.31
2023-02-14T13:06:17.630Z,6.49
2023-02-14T13:08:48.671Z,6.69
2023-02-14T13:11:33.623Z,6.82
2023-02-14T13:14:16.143Z,6.88
2023-02-14T13:16:57.135Z,6.93
2023-02-14T13:19:44.222Z,6.95
2023-02-14T13:22:20.001Z,6.87
2023-02-14T13:24:52.012Z,6.85
2023-02-14T13:27:27.776Z,6.90
2023-02-14T13:30:31.992Z,6.90
2023-02-14T13:33:08.317Z,6.78
2023-02-14T13:35:37.561Z,6.73
2023-02-14T13:38:12.113Z,6.75
2023-02-14T13:40:41.226Z,6.82
2023-02-14T13:43:09.120Z,6.91
2023-02-14T13:45:39.867Z,6.99
2023-02-14T13:48:19.748Z,7.05
2023-02-14T13:51:00.912Z,7.09
2023-02-14T13:53:32.705Z,7.06
2023-02-14T13:56:03.572Z,7.06
2023-02-14T13:58:32.154Z,6.99
2023-02-14T14:01:39.276Z,6.91
2023-02-14T14:04:28.877Z,6.86
2023-02-14T14:07:02.717Z,6.86
2023-02-14T14:09:42.782Z,6.88
2023-02-14T14:12:28.935Z,6.86
2023-02-14T14:15:17.156Z,6.86
2023-02-14T14:17:50.576Z,6.86
2023-02-14T14:20:21.110Z,6.86
2023-02-14T14:22:51.792Z,6.86
2023-02-14T14:25:37.280Z,6.90
2023-02-14T14:28:32.377Z,6.85
2023-02-14T14:31:00.504Z,6.73
2023-02-14T14:33:33.816Z,6.59
2023-02-14T14:36:12.978Z,6.55
2023-02-14T14:38:53.641Z,6.60
2023-02-14T14:41:29.379Z,6.64
2023-02-14T14:43:59.509Z,6.67
2023-02-14T14:46:27.984Z,6.71
2023-02-14T14:48:56.901Z,6.75
2023-02-14T14:51:43.288Z,6.76
2023-02-14T14:54:18.128Z,6.77
2023-02-14T14:56:51.176Z,6.82
2023-02-14T14:59:39.949Z,6.85
2023-02-14T15:02:26.605Z,6.86
2023-02-14T15:04:54.672Z,6.88
2023-02-14T15:07:33.880Z,6.89
2023-02-14T15:10:02.017Z,6.90
2023-02-14T15:12:49.176Z,6.88
2023-02-14T15:15:18.111Z,6.87
2023-02-14T15:17:46.773Z,6.85
2023-02-14T15:20:23.647Z,6.85
2023-02-14T15:22:53.525Z,6.83
2023-02-14T15:25:25.708Z,6.81
2023-02-14T15:27:53.672Z,6.79
2023-02-14T15:30:23.761Z,6.74
2023-02-14T15:32:52.811Z,6.72
2023-02-14T15:35:27.335Z,6.73
2023-02-14T15:38:00.231Z,6.72
2023-02-14T15:40:32.571Z,6.69
2023-02-14T15:43:27.753Z,6.65
2023-02-14T15:46:00.651Z,6.61
2023-02-14T15:48:33.308Z,6.58
2023-02-14T15:51:02.899Z,6.52
2023-02-14T15:53:43.116Z,6.40
2023-02-14T15:56:20.191Z,6.32
2023-02-14T15:58:49.620Z,6.26
2023-02-14T16:01:21.755Z,6.22
2023-02-14T16:03:57.372Z,6.19
2023-02-14T16:06:40.595Z,6.18
2023-02-14T16:09:26.165Z,6.21
2023-02-14T16:11:54.182Z,6.23
2023-02-14T16:14:35.721Z,6.25
2023-02-14T16:17:12.593Z,6.27
2023-02-14T16:19:45.569Z,6.25
2023-02-14T16:22:32.048Z,6.23
2023-02-14T16:25:03.742Z,6.23
2023-02-14T16:27:31.547Z,6.20
2023-02-14T16:29:59.456Z,6.17
2023-02-14T16:32:27.408Z,6.16
2023-02-14T16:34:55.505Z,6.15
2023-02-14T16:37:33.535Z,6.11
2023-02-14T16:40:02.072Z,6.09
2023-02-14T16:42:30.067Z,6.08
2023-02-14T16:44:57.972Z,6.07
2023-02-14T16:47:27.805Z,6.08
2023-02-14T16:49:55.711Z,6.08
2023-02-14T16:52:28.010Z,6.09
2023-02-14T16:54:55.934Z,6.08
2023-02-14T16:57:28.100Z,6.09
2023-02-14T16:59:56.819Z,6.09
2023-02-14T17:02:28.579Z,6.04
2023-02-14T17:04:57.136Z,6.01
2023-02-14T17:07:26.703Z,5.99
2023-02-14T17:10:00.853Z,5.99
2023-02-14T17:12:33.108Z,5.94
2023-02-14T17:15:08.078Z,5.90
2023-02-14T17:17:37.116Z,5.88
2023-02-14T17:20:08.302Z,5.86
2023-02-14T17:22:37.476Z,5.82
2023-02-14T17:25:06.081Z,5.78
2023-02-14T17:27:34.070Z,5.75
2023-02-14T17:30:02.024Z,5.75
2023-02-14T17:32:30.172Z,5.72
2023-02-14T17:34:58.103Z,5.71
2023-02-14T17:37:25.993Z,5.72
2023-02-14T17:39:53.828Z,5.73
2023-02-14T17:42:21.886Z,5.71
2023-02-14T17:44:49.713Z,5.67
2023-02-14T17:47:18.310Z,5.66
2023-02-14T17:49:49.088Z,5.65
2023-02-14T17:52:17.515Z,5.64
2023-02-14T17:54:45.393Z,5.64
2023-02-14T17:57:13.538Z,5.63
2023-02-14T17:59:42.559Z,5.61
2023-02-14T18:02:10.442Z,5.59
2023-02-14T18:04:38.397Z,5.57
2023-02-14T18:07:06.575Z,5.56
2023-02-14T18:09:34.472Z,5.57
2023-02-14T18:12:02.595Z,5.53
2023-02-14T18:14:31.456Z,5.47
2023-02-14T18:16:59.440Z,5.43
2023-02-14T18:19:27.936Z,5.39
2023-02-14T18:21:55.939Z,5.36
2023-02-14T18:24:23.912Z,5.32
2023-02-14T18:26:51.842Z,5.28
2023-02-14T18:29:19.710Z,5.26
2023-02-14T18:31:47.890Z,5.25
2023-02-14T18:34:15.860Z,5.24
2023-02-14T18:36:43.851Z,5.23
2023-02-14T18:39:11.928Z,5.19
2023-02-14T18:41:39.889Z,5.14
2023-02-14T18:44:07.861Z,5.08
2023-02-14T18:46:36.459Z,5.02
2023-02-14T18:49:07.010Z,4.96
2023-02-14T18:51:37.498Z,4.92
2023-02-14T18:54:06.247Z,4.86
2023-02-14T18:56:36.879Z,4.80
2023-02-14T18:59:09.140Z,4.76
2023-02-14T19:01:43.627Z,4.70
2023-02-14T19:04:12.873Z,4.67
2023-02-14T19:06:42.258Z,4.63
2023-02-14T19:09:13.461Z,4.57
2023-02-14T19:11:42.099Z,4.51
2023-02-14T19:14:10.872Z,4.45
2023-02-14T19:16:43.991Z,4.41
2023-02-14T19:19:12.023Z,4.36
2023-02-14T19:21:40.038Z,4.30
2023-02-14T19:24:08.223Z,4.26
2023-02-14T19:26:40.306Z,4.22
2023-02-14T19:29:11.910Z,4.19
2023-02-14T19:31:45.729Z,4.16
2023-02-14T19:34:23.122Z,4.14
2023-02-14T19:36:53.078Z,4.14
2023-02-14T19:39:22.949Z,4.13
2023-02-14T19:41:51.406Z,4.13
2023-02-14T19:44:19.279Z,4.10
2023-02-14T19:46:47.687Z,4.07
2023-02-14T19:49:18.536Z,4.02
2023-02-14T19:51:48.404Z,3.99
2023-02-14T19:54:16.292Z,3.99
2023-02-14T19:56:46.178Z,3.95
2023-02-14T19:59:19.925Z,3.88
2023-02-14T20:01:52.958Z,3.80
2023-02-14T20:04:29.358Z,3.70
2023-02-14T20:06:57.458Z,3.60
2023-02-14T20:09:26.398Z,3.52
2023-02-14T20:11:57.095Z,3.44
2023-02-14T20:14:31.425Z,3.38
2023-02-14T20:17:02.340Z,3.30
2023-02-14T20:19:35.921Z,3.20
2023-02-14T20:22:03.904Z,3.11
2023-02-14T20:24:32.327Z,3.03
2023-02-14T20:27:03.409Z,2.95
2023-02-14T20:29:31.923Z,2.87
2023-02-14T20:32:03.325Z,2.80
2023-02-14T20:34:31.293Z,2.74
2023-02-14T20:37:00.254Z,2.68
2023-02-14T20:39:31.216Z,2.62
2023-02-14T20:42:00.212Z,2.56
2023-02-14T20:44:28.223Z,2.50
2023-02-14T20:46:57.625Z,2.43
2023-02-14T20:49:27.213Z,2.37
2023-02-14T20:51:56.159Z,2.32
2023-02-14T20:54:26.560Z,2.28
2023-02-14T20:56:55.166Z,2.23
2023-02-14T20:59:26.938Z,2.14
2023-02-14T21:01:56.561Z,2.07
2023-02-14T21:04:25.529Z,1.99
2023-02-14T21:06:53.462Z,1.94
2023-02-14T21:09:21.719Z,1.90
2023-02-14T21:11:50.311Z,1.87
2023-02-14T21:14:18.194Z,1.83
2023-02-14T21:16:46.138Z,1.79
2023-02-14T21:19:14.146Z,1.74
2023-02-14T21:21:41.968Z,1.71
2023-02-14T21:24:12.422Z,1.67
2023-02-14T21:26:41.440Z,1.63
2023-02-14T21:29:10.191Z,1.58
2023-02-14T21:31:38.314Z,1.52
2023-02-14T21:34:06.416Z,1.47
2023-02-14T21:36:37.791Z,1.43
2023-02-14T21:39:07.007Z,1.40
2023-02-14T21:41:36.146Z,1.35
2023-02-14T21:44:05.078Z,1.29
2023-02-14T21:46:38.342Z,1.24
2023-02-14T21:49:25.052Z,1.23
2023-02-14T21:51:52.956Z,1.19
2023-02-14T21:54:20.897Z,1.16
2023-02-14T21:56:49.863Z,1.13
2023-02-14T21:59:17.792Z,1.10
2023-02-14T22:01:45.902Z,1.06
2023-02-14T22:04:13.852Z,1.04
2023-02-14T22:06:42.623Z,1.00
2023-02-14T22:09:14.130Z,0.96
2023-02-14T22:11:42.099Z,0.92
2023-02-14T22:14:09.926Z,0.89
2023-02-14T22:16:38.148Z,0.86
2023-02-14T22:19:07.602Z,0.82
2023-02-14T22:21:35.521Z,0.78
2023-02-14T22:24:04.120Z,0.76
2023-02-14T22:26:35.393Z,0.75
2023-02-14T22:29:03.364Z,0.73
2023-02-14T22:31:41.258Z,0.70
2023-02-14T22:34:11.893Z,0.66
2023-02-14T22:36:39.869Z,0.62
2023-02-14T22:39:07.830Z,0.62
2023-02-14T22:41:38.385Z,0.61
2023-02-14T22:44:07.111Z,0.59
2023-02-14T22:46:38.419Z,0.57
2023-02-14T22:49:07.363Z,0.52
2023-02-14T22:51:40.299Z,0.50
2023-02-14T22:54:16.177Z,0.49
2023-02-14T22:56:48.751Z,0.46
2023-02-14T22:59:17.888Z,0.43
2023-02-14T23:01:46.805Z,0.41
2023-02-14T23:04:19.076Z,0.39
2023-02-14T23:06:47.903Z,0.38
2023-02-14T23:09:16.245Z,0.36
2023-02-14T23:11:45.978Z,0.34
2023-02-14T23:14:33.999Z,0.33
2023-02-14T23:17:17.309Z,0.30
2023-02-14T23:20:04.570Z,0.27
2023-02-14T23:22:35.162Z,0.25
2023-02-14T23:25:06.297Z,0.24
2023-02-14T23:27:40.426Z,0.21
2023-02-14T23:30:11.083Z,0.18
2023-02-14T23:32:38.993Z,0.14
2023-02-14T23:35:07.422Z,0.12
2023-02-14T23:37:35.395Z,0.09
2023-02-14T23:40:04.120Z,0.07
2023-02-14T23:42:32.096Z,0.06
2023-02-14T23:45:19.890Z,0.05
2023-02-14T23:47:47.758Z,0.03
2023-02-14T23:50:15.739Z,0.01
2023-02-14T23:52:44.550Z,-0.01
2023-02-14T23:55:13.274Z,-0.03
2023-02-14T23:57:41.158Z,-0.04
